Date,TemperatureHighF,TemperatureAvgF,TemperatureLowF,DewpointHighF,DewpointAvgF,DewpointLowF,HumidityHigh,HumidityAvg,HumidityLow,PressureMaxIn,PressureMinIn,WindSpeedMaxMPH,WindSpeedAvgMPH,GustSpeedMaxMPH,PrecipitationSumIn
2013-2-1,28.0,18.7,8.0,13.0,6.2,1.0,75,58,45,30.46,30.19,9,3,18,0.01
2013-2-2,46.0,34.0,28.0,29.0,21.8,12.0,89,61,45,30.20,30.02,9,4,18,0.01
2013-2-3,36.0,30.6,28.0,29.0,22.8,16.0,93,74,52,30.15,29.96,10,3,23,0.23
2013-2-4,58.0,38.6,28.0,38.0,28.3,20.0,84,68,45,29.97,29.74,10,4,19,0.03
2013-2-5,57.0,39.4,28.0,38.0,30.5,24.0,87,72,47,30.11,29.85,8,2,17,0.01
2013-2-6,51.0,40.6,32.0,34.0,31.1,28.0,87,70,50,30.20,30.02,8,4,15,0.00
2013-2-7,51.0,42.7,38.0,45.0,37.4,31.0,94,81,70,30.02,29.83,12,4,25,0.19
2013-2-8,38.0,34.6,30.0,36.0,30.5,26.0,91,85,77,30.33,30.01,11,4,20,0.01
2013-2-9,41.0,34.1,29.0,34.0,27.9,25.0,90,78,66,30.34,29.99,9,5,18,0.11
2013-2-10,55.0,46.4,37.0,52.0,41.0,32.0,95,84,46,29.99,29.56,13,8,26,0.58
2013-2-11,51.0,42.9,36.0,34.0,28.1,26.0,68,56,44,30.11,29.74,15,5,26,0.02
2013-2-12,46.0,38.4,29.0,32.0,28.1,25.0,85,67,51,30.13,29.91,4,0,9,0.00
2013-2-13,55.0,43.8,35.0,33.0,30.9,29.0,78,62,40,29.91,29.76,7,2,17,0.00
2013-2-14,58.0,46.1,37.0,39.0,33.4,30.0,77,62,41,30.02,29.78,8,4,17,0.00
2013-2-15,42.0,35.7,29.0,31.0,21.7,15.0,83,58,38,30.23,30.02,11,4,20,0.00
2013-2-16,38.0,28.9,20.0,19.0,14.9,11.0,78,57,37,30.23,30.13,8,2,14,0.00
2013-2-17,46.0,35.6,25.0,32.0,21.4,13.0,75,57,40,30.15,29.88,11,4,24,0.00
2013-2-18,56.0,45.2,34.0,48.0,39.0,25.0,93,79,68,29.88,29.52,16,7,33,0.15
2013-2-19,36.0,29.5,23.0,26.0,17.8,11.0,76,62,47,30.27,29.87,11,6,24,0.07
2013-2-20,27.0,22.7,18.0,15.0,12.5,10.0,73,65,57,30.37,30.24,4,1,10,0.00
2013-2-21,31.0,25.3,21.0,29.0,21.1,14.0,94,84,73,30.29,29.79,12,4,23,0.00
2013-2-22,34.0,30.8,23.0,32.0,27.1,18.0,95,86,72,30.04,29.77,7,2,16,0.12
2013-2-23,37.0,27.8,18.0,24.0,20.1,15.0,89,74,56,30.03,29.95,4,1,9,0.46
2013-2-24,43.0,34.1,23.0,28.0,24.3,19.0,85,68,50,30.09,29.99,7,2,13,0.13
2013-2-25,45.0,37.5,31.0,33.0,29.7,26.0,91,74,57,30.03,29.58,10,5,19,0.28
2013-2-26,40.0,35.3,33.0,39.0,33.9,32.0,96,94,91,29.64,29.32,10,4,21,1.09
2013-2-27,34.0,32.3,31.0,32.0,30.1,28.0,95,91,87,29.86,29.64,8,4,17,0.11
2013-2-28,35.0,32.4,31.0,30.0,28.8,28.0,91,86,80,30.07,29.85,8,4,16,0.02